Terminal Aerodrome Forecast
Issued by NWS

Home | Current Version | Previous Version | Text Only | Print | Product List | Glossary On
Versions: 1 2 3 4 5 6 7 8 9 10 11 12 13 14
000
FTUS45 KFGZ 282320
TAFSEZ
TAF
KSEZ 282320Z 2900/2924 25008KT P6SM SCT200
     FM290200 VRB05KT P6SM SCT200
     FM290500 05008KT P6SM SCT200
     FM291600 15007KT P6SM SCT080
     FM292000 VRB06KT P6SM BKN080=

USA.gov is the U.S. government's official web portal to all federal, state and local government web resources and services.